Latest Weather Observations for Victoria River Downs

IDD60801

Issued at 7:01 pm CST Monday 25 May 2015 (issued every 30 minutes, with the page automatically refreshed every 10 minutes)

About weather observations | Map of weather stations | Latest weather observations for NT | Other Formats
Station Details ID: 014825 Name: VICTORIA RIVER DOWNS Lat: -16.40 Lon: 131.01 Height: 88.5 m
Data from the previous 72 hours. | See also: Recent months at Victoria River Downs
Date/Time
CST
Temp
°C
App
Temp
°C
Dew
Point
Rel
Hum
%
Delta-T
°C
Wind Press
QNH
hPa
Press
MSL
hPa
Rain
since 9 am
mm
Dir
 
Spd
km/h
Gust
km/h
Spd
kts
Gust
kts
25/07:00pm 23.9 23.2 7.1 34 8.8 CALM 0 0 0 0 1016.1 - 0.0
25/06:30pm 26.5 25.1 3.7 23 11.4 CALM 0 0 0 0 1015.8 - 0.0
25/06:28pm 27.1 25.8 4.2 23 11.6 CALM 0 0 0 0 1015.7 - 0.0
25/06:00pm 30.2 27.8 -0.2 14 14.5 E 2 6 1 3 1015.4 1014.8 0.0
25/05:30pm 32.0 28.7 0.2 13 15.5 ENE 7 11 4 6 1014.9 - 0.0
25/05:00pm 32.2 30.1 -0.8 12 15.8 CALM 0 0 0 0 1014.6 - 0.0
25/04:30pm 32.4 29.0 -0.6 12 15.9 S 7 15 4 8 1014.7 - 0.0
25/04:00pm 32.4 28.2 -0.6 12 15.9 ENE 11 15 6 8 1014.7 - 0.0
25/03:30pm 32.2 27.6 -0.8 12 15.8 E 13 17 7 9 1015.1 - 0.0
25/03:00pm 32.0 28.5 1.2 14 15.3 E 9 17 5 9 1015.4 1014.9 0.0
25/02:30pm 31.6 27.7 -1.2 12 15.6 S 9 13 5 7 1015.6 - 0.0
25/02:00pm 31.0 27.4 0.4 14 14.9 E 9 17 5 9 1016.1 - 0.0
25/01:30pm 30.0 25.9 -0.4 14 14.5 NE 11 17 6 9 1016.8 - 0.0
25/01:00pm 29.5 25.7 -0.8 14 14.3 E 9 13 5 7 1017.6 - 0.0
25/12:30pm 28.6 24.8 -0.5 15 13.7 NNE 9 13 5 7 1018.1 - 0.0
25/12:00pm 27.6 23.5 -0.5 16 13.1 E 11 17 6 9 1018.7 1018.3 0.0
25/11:30am 27.0 24.0 0.7 18 12.5 E 6 11 3 6 1019.2 - 0.0
25/11:00am 25.4 22.3 0.1 19 11.7 ENE 6 11 3 6 1019.4 - 0.0
25/10:30am 24.4 20.8 0.7 21 11.0 ENE 9 15 5 8 1020.0 - 0.0
25/10:00am 22.8 19.7 1.2 24 10.0 NE 7 11 4 6 1020.1 - 0.0
25/09:30am 21.2 18.0 1.0 26 9.2 NE 7 11 4 6 1020.0 - 0.0
25/09:00am 19.1 17.0 2.0 32 7.8 S 2 6 1 3 1020.0 1019.6 0.0
25/08:30am 16.9 15.1 1.4 35 6.9 CALM 0 6 0 3 1019.8 - 0.0
25/08:00am 13.3 10.4 2.5 48 4.7 WNW 7 7 4 4 1019.8 - 0.0
25/07:30am 10.6 7.7 1.7 54 3.8 WNW 6 6 3 3 1019.4 - 0.0
25/07:00am 10.5 7.5 1.9 55 3.6 WNW 7 9 4 5 1019.0 - 0.0
25/06:30am 10.2 7.1 1.6 55 3.6 WNW 7 7 4 4 1018.6 - 0.0
25/06:00am 10.2 7.1 1.3 54 3.7 W 7 7 4 4 1018.0 1017.5 0.0
25/05:30am 11.0 7.9 1.3 51 4.1 W 7 7 4 4 1017.9 - 0.0
25/05:00am 11.2 7.8 2.0 53 3.9 WNW 9 11 5 6 1017.9 - 0.0
25/04:30am 11.4 9.3 1.6 51 4.2 W 2 7 1 4 1017.7 - 0.0
25/04:00am 11.1 8.2 1.6 52 4.0 W 6 9 3 5 1017.6 - 0.0
25/03:30am 11.2 8.1 1.5 51 4.1 SW 7 9 4 5 1017.5 - 0.0
25/03:00am 11.6 8.5 1.3 49 4.3 SW 7 9 4 5 1017.5 1017.1 0.0
25/02:30am 11.7 8.6 1.4 49 4.4 WNW 7 7 4 4 1017.7 - 0.0
25/02:00am 12.3 9.4 1.3 47 4.7 WNW 6 7 3 4 1017.7 - 0.0
25/01:30am 13.3 10.2 1.6 45 5.1 WNW 7 9 4 5 1017.9 - 0.0
25/01:00am 12.8 9.9 1.2 45 4.9 NNW 6 7 3 4 1018.1 - 0.0
25/12:30am 13.4 10.7 2.6 48 4.8 SSE 6 7 3 4 1018.0 - 0.0
25/12:00am 14.4 11.2 1.0 40 5.8 SSE 7 9 4 5 1018.4 1018.1 0.0
 
Date/Time
CST
Temp
°C
App
Temp
°C
Dew
Point
Rel
Hum
%
Delta-T
°C
Wind Press
QNH
hPa
Press
MSL
hPa
Rain
since 9 am
mm
Dir
 
Spd
km/h
Gust
km/h
Spd
kts
Gust
kts
24/11:30pm 15.6 12.4 0.6 36 6.5 SSE 7 9 4 5 1018.5 - 0.0
24/11:00pm 17.8 14.6 0.5 31 7.6 S 7 9 4 5 1018.4 - 0.0
24/10:30pm 18.5 15.2 0.2 29 8.0 SSE 7 11 4 6 1018.3 - 0.0
24/10:00pm 19.4 16.2 0.9 29 8.3 SSE 7 9 4 5 1018.1 - 0.0
24/09:30pm 19.1 16.1 0.7 29 8.2 SSE 6 7 3 4 1017.8 - 0.0
24/09:00pm 18.8 15.7 1.3 31 7.9 S 7 9 4 5 1017.4 1016.9 0.0
24/08:30pm 18.6 15.4 0.7 30 8.0 S 7 7 4 4 1017.1 - 0.0
24/08:00pm 19.8 16.9 1.3 29 8.4 SE 6 7 3 4 1016.6 - 0.0
24/07:30pm 20.7 17.4 0.0 25 9.2 SSE 7 7 4 4 1016.2 - 0.0
24/07:28pm 21.2 18.0 1.0 26 9.2 S 7 9 4 5 1016.2 - 0.0
24/07:00pm 22.9 20.0 2.4 26 9.8 SSE 7 7 4 4 1015.9 - 0.0
24/06:30pm 25.9 22.2 -2.7 15 12.7 S 7 9 4 5 1015.8 - 0.0
24/06:00pm 28.2 24.1 -2.8 13 13.9 S 9 13 5 7 1015.5 1014.9 0.0
24/05:30pm 28.9 24.5 -2.3 13 14.2 S 11 19 6 10 1015.1 - 0.0
24/05:00pm 29.3 25.0 -1.9 13 14.4 SSE 11 19 6 10 1014.8 - 0.0
24/04:30pm 29.8 25.7 -0.5 14 14.4 SSE 11 17 6 9 1014.8 - 0.0
24/04:00pm 29.9 25.2 -1.5 13 14.7 ESE 13 19 7 10 1014.8 - 0.0
24/03:30pm 29.7 25.4 -1.6 13 14.6 ESE 11 17 6 9 1014.9 - 0.0
24/03:00pm 29.4 24.8 -0.9 14 14.2 SE 13 17 7 9 1015.0 1014.5 0.0
24/02:30pm 29.2 24.5 -2.0 13 14.4 ENE 13 22 7 12 1015.3 - 0.0
24/02:00pm 28.4 24.5 -1.6 14 13.8 SE 9 17 5 9 1015.7 - 0.0
24/01:30pm 28.1 23.9 -0.9 15 13.5 ESE 11 17 6 9 1016.2 - 0.0
24/01:00pm 27.1 22.5 -0.9 16 12.9 ESE 13 17 7 9 1016.9 - 0.0
24/12:30pm 26.1 22.3 -0.8 17 12.3 E 9 17 5 9 1017.4 - 0.0
24/12:00pm 25.4 21.2 -0.6 18 11.9 E 11 22 6 12 1018.0 1017.6 0.0
24/11:30am 24.7 20.3 0.3 20 11.3 SE 13 19 7 10 1018.4 - 0.0
24/11:00am 23.8 20.1 2.6 25 10.2 SSE 11 19 6 10 1019.0 - 0.0
24/10:30am 22.9 18.5 0.1 22 10.4 E 13 19 7 10 1019.1 - 0.0
24/10:00am 22.1 18.5 0.6 24 9.8 ESE 9 13 5 7 1019.4 - 0.0
24/09:30am 20.6 16.6 0.4 26 9.1 ESE 11 15 6 8 1019.3 - 0.0
24/09:00am 19.5 16.1 1.9 31 8.1 S 9 13 5 7 1019.5 1019.1 0.0
24/08:30am 17.0 15.1 2.6 38 6.6 S 2 9 1 5 1019.3 - 0.0
24/08:19am 16.2 14.9 3.9 44 5.7 CALM 0 0 0 0 1019.1 - 0.0
24/08:00am 13.6 12.1 2.8 48 4.8 CALM 0 0 0 0 1019.3 - 0.0
24/07:30am 11.0 8.6 2.1 54 3.8 W 4 7 2 4 1019.0 - 0.0
24/07:00am 10.7 9.0 1.8 54 3.8 CALM 0 0 0 0 1018.5 - 0.0
24/06:30am 10.7 8.3 2.0 55 3.7 WNW 4 7 2 4 1018.3 - 0.0
24/06:00am 10.8 9.1 1.9 54 3.8 CALM 0 7 0 4 1018.1 1017.7 0.0
24/05:30am 11.7 10.0 1.9 51 4.2 CALM 0 0 0 0 1017.8 - 0.0
24/05:00am 11.4 8.3 1.6 51 4.2 WNW 7 9 4 5 1017.7 - 0.0
24/04:30am 11.9 9.0 1.5 49 4.4 SW 6 7 3 4 1017.6 - 0.0
24/04:00am 12.6 10.6 2.2 49 4.5 S 2 7 1 4 1017.5 - 0.0
24/03:30am 13.1 10.2 2.6 49 4.6 SSE 7 7 4 4 1017.3 - 0.0
24/03:00am 13.9 11.2 3.7 50 4.6 SSE 7 7 4 4 1017.4 1017.0 0.0
24/02:30am 14.2 11.2 2.1 44 5.3 SE 7 7 4 4 1017.5 - 0.0
24/02:00am 14.6 11.7 1.2 40 5.8 SSE 6 9 3 5 1017.8 - 0.0
24/01:30am 17.0 14.1 2.6 38 6.6 S 7 9 4 5 1017.9 - 0.0
24/01:00am 16.4 13.1 0.1 33 7.0 SSE 7 9 4 5 1017.8 - 0.0
24/12:30am 18.3 14.9 -0.5 28 8.1 S 7 9 4 5 1017.9 - 0.0
24/12:00am 19.1 15.7 -0.3 27 8.5 SE 7 9 4 5 1017.7 1017.3 0.0
 
Date/Time
CST
Temp
°C
App
Temp
°C
Dew
Point
Rel
Hum
%
Delta-T
°C
Wind Press
QNH
hPa
Press
MSL
hPa
Rain
since 9 am
mm
Dir
 
Spd
km/h
Gust
km/h
Spd
kts
Gust
kts
23/11:30pm 19.7 16.1 0.7 28 8.5 SE 9 13 5 7 1017.6 - 0.0
23/11:00pm 20.8 17.1 0.1 25 9.3 SE 9 17 5 9 1017.7 - 0.0
23/10:30pm 21.6 17.4 -1.0 22 10.0 SSE 11 15 6 8 1017.7 - 0.0
23/10:00pm 22.1 18.3 -0.6 22 10.1 SSE 9 13 5 7 1017.7 - 0.0
23/09:30pm 22.7 19.0 -0.1 22 10.3 SSE 9 13 5 7 1017.7 - 0.0
23/09:00pm 23.0 19.4 0.8 23 10.2 SE 9 13 5 7 1017.4 1017.0 0.0
23/08:30pm 22.7 19.2 1.1 24 10.0 S 9 11 5 6 1017.4 - 0.0
23/08:00pm 23.2 20.0 0.9 23 10.3 S 7 11 4 6 1017.0 - 0.0
23/07:30pm 23.0 19.6 1.9 25 9.9 S 9 11 5 6 1016.5 - 0.0
23/07:00pm 24.7 21.7 2.2 23 10.8 S 7 9 4 5 1016.1 - 0.0
23/06:30pm 25.8 22.4 1.8 21 11.5 SSE 9 11 5 6 1015.9 - 0.0
23/06:00pm 27.5 24.0 1.1 18 12.7 S 9 17 5 9 1015.8 1015.4 0.0
23/05:30pm 28.1 24.3 1.6 18 12.9 SSE 11 19 6 10 1015.5 - 0.0
23/05:00pm 28.6 24.5 2.0 18 13.1 SSE 13 20 7 11 1015.4 - 0.0
23/04:30pm 28.5 24.7 1.9 18 13.0 S 11 17 6 9 1015.4 - 0.0
23/04:00pm 28.7 24.4 1.3 17 13.3 SSE 13 24 7 13 1015.5 - 0.0
23/03:30pm 28.5 24.5 0.3 16 13.4 S 11 19 6 10 1015.7 - 0.0
23/03:00pm 28.2 24.3 0.9 17 13.1 ESE 11 15 6 8 1016.1 1015.8 0.0
23/02:30pm 28.4 25.1 2.6 19 12.8 SE 9 17 5 9 1016.5 - 0.0
23/02:00pm 27.3 23.1 -0.7 16 13.0 ESE 11 19 6 10 1017.0 - 0.0
23/01:30pm 26.8 23.1 -0.3 17 12.6 SSE 9 15 5 8 1017.7 - 0.0
23/01:00pm 26.5 22.4 -0.5 17 12.5 SE 11 26 6 14 1018.2 - 0.0
23/12:30pm 25.8 21.5 -1.9 16 12.4 ESE 11 20 6 11 1018.8 - 0.0
23/12:00pm 24.6 20.2 0.2 20 11.2 SE 13 19 7 10 1019.5 1019.2 0.0
23/11:30am 24.0 19.8 -1.0 19 11.2 ESE 11 20 6 11 1019.9 - 0.0
23/11:00am 23.5 19.9 -2.2 18 11.3 E 7 15 4 8 1020.3 - 0.0
23/10:30am 22.8 18.4 -2.7 18 11.0 ESE 11 17 6 9 1020.9 - 0.0
23/10:00am 21.8 17.1 -2.1 20 10.3 ESE 13 22 7 12 1021.1 - 0.0
23/09:30am 21.1 16.6 -0.2 24 9.5 E 13 19 7 10 1021.1 - 0.0
23/09:00am 20.2 15.6 -1.0 24 9.2 SE 13 22 7 12 1020.9 1020.5 0.0
23/08:30am 19.0 16.1 1.5 31 7.9 S 6 9 3 5 1021.0 - 0.0
23/08:19am 17.9 16.0 2.6 36 7.0 S 2 9 1 5 1020.9 - 0.0
23/08:00am 15.6 14.8 6.3 54 4.5 CALM 0 0 0 0 1020.8 - 0.0
23/07:30am 12.9 12.1 6.3 64 3.2 CALM 0 0 0 0 1020.6 - 0.0
23/07:00am 13.1 12.2 6.2 63 3.3 CALM 0 0 0 0 1020.2 - 0.0
23/06:30am 13.3 12.5 6.4 63 3.3 CALM 0 0 0 0 1019.8 - 0.0
23/06:00am 13.5 12.7 6.4 62 3.4 CALM 0 0 0 0 1019.5 1019.1 0.0
23/05:30am 14.1 13.2 6.2 59 3.8 CALM 0 0 0 0 1019.3 - 0.0
23/05:00am 14.3 13.0 6.2 58 3.9 S 2 6 1 3 1019.1 - 0.0
23/04:30am 14.7 12.6 6.0 56 4.2 S 6 7 3 4 1019.0 - 0.0
23/04:00am 15.8 13.8 6.3 53 4.6 S 6 7 3 4 1018.9 - 0.0
23/03:30am 17.0 15.0 6.2 49 5.3 SSE 6 7 3 4 1018.7 - 0.0
23/03:00am 18.2 16.2 6.4 46 5.9 SSE 6 7 3 4 1018.7 1018.3 0.0
23/02:30am 18.3 16.2 6.8 47 5.8 SSE 7 11 4 6 1018.7 - 0.0
23/02:00am 19.2 17.2 6.3 43 6.4 SE 6 9 3 5 1018.8 - 0.0
23/01:30am 19.7 17.7 7.1 44 6.4 SE 7 9 4 5 1018.9 - 0.0
23/01:00am 20.1 18.1 7.1 43 6.6 SSE 7 9 4 5 1018.8 - 0.0
23/12:30am 20.5 18.5 7.2 42 6.8 SE 7 9 4 5 1018.8 - 0.0
23/12:00am 21.2 19.4 8.1 43 6.8 SSE 7 11 4 6 1018.8 1018.4 0.0
 
Date/Time
CST
Temp
°C
App
Temp
°C
Dew
Point
Rel
Hum
%
Delta-T
°C
Wind Press
QNH
hPa
Press
MSL
hPa
Rain
since 9 am
mm
Dir
 
Spd
km/h
Gust
km/h
Spd
kts
Gust
kts
22/11:30pm 21.6 19.3 7.4 40 7.4 ESE 9 13 5 7 1018.9 - 0.0
22/11:00pm 22.6 20.2 6.8 36 8.1 SE 9 13 5 7 1019.0 - 0.0
22/10:30pm 23.2 20.4 6.9 35 8.5 SE 11 19 6 10 1018.9 - 0.0
22/10:00pm 23.7 20.6 7.3 35 8.6 SSE 13 19 7 10 1018.7 - 0.0
22/09:30pm 24.1 21.9 7.7 35 8.7 SSE 9 13 5 7 1018.6 - 0.0
22/09:00pm 24.8 22.1 7.4 33 9.2 SE 11 15 6 8 1018.2 1017.8 0.0
22/08:30pm 25.4 23.2 8.0 33 9.3 SE 9 15 5 8 1018.0 - 0.0
22/08:00pm 25.9 23.2 7.5 31 9.8 SSE 11 15 6 8 1017.6 - 0.0
22/07:30pm 26.3 24.2 8.3 32 9.7 SSE 9 13 5 7 1017.2 - 0.0

Other Formats:

Comma delimited format used in spreadsheet applications
http://www.bom.gov.au/fwo/IDD60801/IDD60801.94232.axf

JavaScript Object Notation format (JSON) in row-major order
http://www.bom.gov.au/fwo/IDD60801/IDD60801.94232.json